Cleveland, Oklahoma
Current Conditions -  °F | °C
As of 5:15 AM on Wednesday 22 Oct 2014 (Local Time) from KOWP Reporting Station
Haze Haze  
Wind Chill: 62°   Ceiling: Unl
Heat Index: 62°   Visibility: 5mi
Dew Point: 60°   Wind: 3mph
Humidity: 92%   Direction: 140°SE
Pressure: 30.1"   Gusts: NA
Location:  36.31°N, 96.46°W
Report Text: KOWP 221015Z AUTO 14003KT 5SM BR CLR 17/16 A3010 RMK AO2 T01690156
Loading
Personal Weather Stations






























Interactive Weather Map
Tropical Storm Tracking
New forecast layout! Learn more

10-Day Weather Forecast

Advertisements
Track Severe Weather on mobile